createdAt,value
2022-08-08T00:00:59.630Z,100351.69
2022-08-08T00:03:15.285Z,100342.03
2022-08-08T00:06:08.011Z,100347.41
2022-08-08T00:09:01.078Z,100364.44
2022-08-08T00:12:02.803Z,100365.22
2022-08-08T00:14:59.291Z,100351.00
2022-08-08T00:18:03.171Z,100356.63
2022-08-08T00:20:55.253Z,100353.22
2022-08-08T00:23:52.306Z,100341.63
2022-08-08T00:26:38.038Z,100358.75
2022-08-08T00:29:21.481Z,100340.72
2022-08-08T00:32:35.276Z,100349.81
2022-08-08T00:35:37.344Z,100345.16
2022-08-08T00:38:51.612Z,100350.06
2022-08-08T00:42:08.873Z,100337.91
2022-08-08T00:44:59.373Z,100332.03
2022-08-08T00:48:05.431Z,100351.63
2022-08-08T00:51:08.212Z,100349.28
2022-08-08T00:54:20.114Z,100343.38
2022-08-08T00:57:29.653Z,100352.25
2022-08-08T01:00:09.698Z,100353.56
2022-08-08T01:03:58.877Z,100344.44
2022-08-08T01:06:30.874Z,100355.72
2022-08-08T01:09:34.903Z,100357.59
2022-08-08T01:12:37.969Z,100351.16
2022-08-08T01:15:53.324Z,100358.66
2022-08-08T01:18:53.395Z,100355.69
2022-08-08T01:22:09.949Z,100359.97
2022-08-08T01:24:53.932Z,100359.66
2022-08-08T01:27:44.226Z,100365.84
2022-08-08T01:30:53.644Z,100361.28
2022-08-08T01:34:00.272Z,100357.78
2022-08-08T01:36:57.748Z,100352.44
2022-08-08T01:39:42.169Z,100349.47
2022-08-08T01:42:50.835Z,100373.03
2022-08-08T01:45:56.332Z,100354.53
2022-08-08T01:48:46.319Z,100357.47
2022-08-08T01:52:51.352Z,100372.72
2022-08-08T01:55:26.039Z,100371.06
2022-08-08T01:58:12.545Z,100358.47
2022-08-08T02:00:57.646Z,100360.34
2022-08-08T02:04:04.217Z,100355.19
2022-08-08T02:07:04.020Z,100353.06
2022-08-08T02:10:01.892Z,100345.25
2022-08-08T02:12:50.594Z,100340.16
2022-08-08T02:15:29.486Z,100346.59
2022-08-08T02:18:14.228Z,100317.41
2022-08-08T02:21:18.254Z,100346.56
2022-08-08T02:24:02.229Z,100343.59
2022-08-08T02:26:47.843Z,100326.44
2022-08-08T02:29:46.695Z,100323.47
2022-08-08T02:32:39.503Z,100333.06
2022-08-08T02:35:18.889Z,100330.91
2022-08-08T02:38:25.290Z,100330.63
2022-08-08T02:41:17.803Z,100330.88
2022-08-08T02:44:56.853Z,100337.56
2022-08-08T02:47:42.225Z,100330.03
2022-08-08T02:50:39.909Z,100335.94
2022-08-08T02:53:27.676Z,100326.50
2022-08-08T02:56:44.930Z,100307.78
2022-08-08T02:59:37.291Z,100293.34
2022-08-08T03:02:50.508Z,100322.44
2022-08-08T03:05:46.791Z,100321.91
2022-08-08T03:08:42.008Z,100326.97
2022-08-08T03:11:48.113Z,100295.44
2022-08-08T03:15:58.356Z,100324.56
2022-08-08T03:17:39.880Z,100269.22
2022-08-08T03:20:11.126Z,100320.25
2022-08-08T03:22:56.784Z,100286.78
2022-08-08T03:25:34.214Z,100308.16
2022-08-08T03:28:13.439Z,100306.81
2022-08-08T03:31:22.749Z,100307.84
2022-08-08T03:34:00.497Z,100309.22
2022-08-08T03:36:31.446Z,100310.25
2022-08-08T03:39:14.246Z,100303.00
2022-08-08T03:42:26.541Z,100301.31
2022-08-08T03:44:38.388Z,100294.94
2022-08-08T03:47:19.621Z,100304.31
2022-08-08T03:50:00.646Z,100290.09
2022-08-08T03:52:35.672Z,100272.13
2022-08-08T03:55:20.190Z,100269.38
2022-08-08T03:58:36.127Z,100282.47
2022-08-08T04:01:01.770Z,100274.13
2022-08-08T04:03:57.283Z,100271.75
2022-08-08T04:06:30.724Z,100243.97
2022-08-08T04:09:06.804Z,100277.06
2022-08-08T04:11:58.686Z,100261.22
2022-08-08T04:14:34.858Z,100248.09
2022-08-08T04:17:06.868Z,100241.09
2022-08-08T04:19:58.559Z,100231.75
2022-08-08T04:22:30.047Z,100232.50
2022-08-08T04:24:59.998Z,100239.69
2022-08-08T04:28:03.463Z,100225.78
2022-08-08T04:30:27.621Z,100229.53
2022-08-08T04:32:57.184Z,100211.31
2022-08-08T04:35:29.424Z,100223.81
2022-08-08T04:38:01.795Z,100229.19
2022-08-08T04:40:32.612Z,100223.81
2022-08-08T04:43:08.885Z,100222.50
2022-08-08T04:45:39.060Z,100234.78
2022-08-08T04:48:10.431Z,100226.22
2022-08-08T04:50:44.522Z,100236.09
2022-08-08T04:54:27.063Z,100223.59
2022-08-08T04:56:05.534Z,100200.56
2022-08-08T04:58:35.324Z,100225.94
2022-08-08T05:01:08.793Z,100230.97
2022-08-08T05:04:10.363Z,100234.75
2022-08-08T05:06:30.729Z,100227.50
2022-08-08T05:09:07.714Z,100210.66
2022-08-08T05:11:39.297Z,100221.84
2022-08-08T05:14:12.162Z,100209.75
2022-08-08T05:16:52.343Z,100213.47
2022-08-08T05:20:09.081Z,100217.53
2022-08-08T05:22:21.512Z,100212.97
2022-08-08T05:24:50.835Z,100206.06
2022-08-08T05:27:20.206Z,100206.53
2022-08-08T05:29:52.272Z,100188.66
2022-08-08T05:32:24.635Z,100211.91
2022-08-08T05:35:05.240Z,100200.22
2022-08-08T05:37:53.140Z,100232.53
2022-08-08T05:40:28.332Z,100222.06
2022-08-08T05:43:39.759Z,100224.06
2022-08-08T05:46:03.007Z,100210.84
2022-08-08T05:48:37.802Z,100224.16
2022-08-08T05:51:14.488Z,100214.19
2022-08-08T05:54:24.028Z,100214.00
2022-08-08T05:56:42.582Z,100214.72
2022-08-08T05:59:59.730Z,100203.75
2022-08-08T06:02:43.899Z,100202.22
2022-08-08T06:05:34.610Z,100200.47
2022-08-08T06:08:09.644Z,100206.66
2022-08-08T06:11:00.641Z,100193.00
2022-08-08T06:13:36.207Z,100183.41
2022-08-08T06:16:19.035Z,100191.59
2022-08-08T06:18:56.943Z,100204.22
2022-08-08T06:21:48.813Z,100197.53
2022-08-08T06:24:26.949Z,100193.78
2022-08-08T06:27:06.888Z,100198.06
2022-08-08T06:29:59.800Z,100199.66
2022-08-08T06:32:34.331Z,100192.38
2022-08-08T06:36:00.516Z,100177.97
2022-08-08T06:38:01.758Z,100199.38
2022-08-08T06:40:37.013Z,100195.31
2022-08-08T06:43:13.895Z,100184.84
2022-08-08T06:45:43.620Z,100184.56
2022-08-08T06:48:13.349Z,100182.16
2022-08-08T06:50:44.341Z,100174.13
2022-08-08T06:53:20.136Z,100181.09
2022-08-08T06:56:00.624Z,100184.78
2022-08-08T06:58:34.151Z,100174.91
2022-08-08T07:01:24.222Z,100177.81
2022-08-08T07:04:38.578Z,100165.69
2022-08-08T07:07:12.692Z,100166.78
2022-08-08T07:10:08.339Z,100157.91
2022-08-08T07:12:47.388Z,100150.13
2022-08-08T07:15:32.200Z,100150.06
2022-08-08T07:18:35.645Z,100141.78
2022-08-08T07:21:19.040Z,100152.75
2022-08-08T07:24:10.437Z,100147.09
2022-08-08T07:26:43.410Z,100134.53
2022-08-08T07:29:54.587Z,100144.97
2022-08-08T07:32:11.135Z,100125.44
2022-08-08T07:34:59.351Z,100123.47
2022-08-08T07:37:31.654Z,100132.84
2022-08-08T07:40:29.474Z,100118.47
2022-08-08T07:43:09.281Z,100143.31
2022-08-08T07:46:05.291Z,100134.47
2022-08-08T07:48:29.777Z,100136.03
2022-08-08T07:51:02.148Z,100126.97
2022-08-08T07:54:01.551Z,100128.06
2022-08-08T07:56:44.472Z,100105.63
2022-08-08T07:59:19.476Z,100120.22
2022-08-08T08:02:36.097Z,100137.59
2022-08-08T08:04:52.395Z,100129.31
2022-08-08T08:07:31.934Z,100137.59
2022-08-08T08:10:04.513Z,100137.31
2022-08-08T08:12:41.389Z,100125.59
2022-08-08T08:15:15.786Z,100140.00
2022-08-08T08:17:48.872Z,100153.13
2022-08-08T08:20:31.528Z,100124.28
2022-08-08T08:23:00.759Z,100143.97
2022-08-08T08:25:43.079Z,100110.25
2022-08-08T08:28:23.633Z,100136.41
2022-08-08T08:30:54.666Z,100132.63
2022-08-08T08:33:24.475Z,100115.56
2022-08-08T08:36:19.662Z,100119.56
2022-08-08T08:38:49.588Z,100135.84
2022-08-08T08:41:22.447Z,100144.72
2022-08-08T08:44:13.540Z,100141.72
2022-08-08T08:46:47.306Z,100121.53
2022-08-08T08:49:20.064Z,100131.94
2022-08-08T08:51:51.990Z,100140.13
2022-08-08T08:54:24.985Z,100109.97
2022-08-08T08:56:55.050Z,100130.75
2022-08-08T08:59:57.531Z,100140.13
2022-08-08T09:02:25.422Z,100133.16
2022-08-08T09:04:59.244Z,100123.78
2022-08-08T09:07:39.257Z,100114.69
2022-08-08T09:10:21.978Z,100144.34
2022-08-08T09:12:52.019Z,100130.16
2022-08-08T09:15:40.782Z,100137.34
2022-08-08T09:18:11.652Z,100144.34
2022-08-08T09:21:58.408Z,100120.28
2022-08-08T09:23:38.217Z,100121.50
2022-08-08T09:26:49.779Z,100121.88
2022-08-08T09:29:25.362Z,100142.16
2022-08-08T09:32:06.510Z,100145.16
2022-08-08T09:34:50.461Z,100126.25
2022-08-08T09:37:57.833Z,100142.94
2022-08-08T09:40:13.016Z,100142.03
2022-08-08T09:42:51.747Z,100145.16
2022-08-08T09:46:01.943Z,100149.13
2022-08-08T09:48:21.106Z,100154.72
2022-08-08T09:50:56.192Z,100168.47
2022-08-08T09:54:05.134Z,100141.06
2022-08-08T09:56:44.658Z,100150.88
2022-08-08T09:59:50.218Z,100142.44
2022-08-08T10:02:23.429Z,100135.88
2022-08-08T10:04:53.896Z,100149.53
2022-08-08T10:07:23.927Z,100138.41
2022-08-08T10:10:00.535Z,100129.91
2022-08-08T10:12:54.232Z,100133.81
2022-08-08T10:15:29.383Z,100146.72
2022-08-08T10:18:11.679Z,100135.78
2022-08-08T10:20:57.274Z,100141.50
2022-08-08T10:23:48.286Z,100148.22
2022-08-08T10:26:57.190Z,100123.16
2022-08-08T10:29:43.939Z,100141.13
2022-08-08T10:32:34.657Z,100149.69
2022-08-08T10:36:03.928Z,100158.81
2022-08-08T10:38:08.061Z,100150.84
2022-08-08T10:40:41.916Z,100151.63
2022-08-08T10:43:12.676Z,100147.34
2022-08-08T10:45:56.947Z,100154.03
2022-08-08T10:48:58.586Z,100149.81
2022-08-08T10:51:47.086Z,100143.66
2022-08-08T10:54:25.066Z,100160.50
2022-08-08T10:57:04.490Z,100167.44
2022-08-08T10:59:40.049Z,100145.88
2022-08-08T11:02:10.966Z,100172.06
2022-08-08T11:04:53.813Z,100156.59
2022-08-08T11:08:30.065Z,100186.56
2022-08-08T11:10:29.255Z,100162.72
2022-08-08T11:13:28.589Z,100178.28
2022-08-08T11:15:59.027Z,100157.41
2022-08-08T11:18:31.956Z,100182.28
2022-08-08T11:21:09.858Z,100176.66
2022-08-08T11:23:44.073Z,100183.88
2022-08-08T11:26:19.265Z,100169.44
2022-08-08T11:28:50.235Z,100176.91
2022-08-08T11:31:20.899Z,100198.56
2022-08-08T11:34:01.770Z,100202.81
2022-08-08T11:36:36.675Z,100202.25
2022-08-08T11:39:10.814Z,100207.84
2022-08-08T11:41:44.476Z,100193.38
2022-08-08T11:44:16.548Z,100202.50
2022-08-08T11:46:46.092Z,100210.78
2022-08-08T11:49:22.882Z,100216.66
2022-08-08T11:51:54.734Z,100210.47
2022-08-08T11:54:38.355Z,100232.34
2022-08-08T11:57:27.071Z,100228.09
2022-08-08T12:00:06.876Z,100196.47
2022-08-08T12:02:56.988Z,100240.38
2022-08-08T12:05:38.058Z,100237.19
2022-08-08T12:08:08.639Z,100252.66
2022-08-08T12:10:49.573Z,100250.81
2022-08-08T12:13:37.965Z,100251.81
2022-08-08T12:16:20.496Z,100259.28
2022-08-08T12:19:01.831Z,100227.88
2022-08-08T12:21:59.280Z,100248.50
2022-08-08T12:24:29.951Z,100255.44
2022-08-08T12:27:03.355Z,100273.84
2022-08-08T12:32:19.769Z,100265.25
2022-08-08T12:35:13.105Z,100249.75
2022-08-08T12:38:02.237Z,100250.47
2022-08-08T12:40:56.796Z,100233.56
2022-08-08T12:43:43.816Z,100259.78
2022-08-08T12:46:26.778Z,100260.03
2022-08-08T12:52:00.294Z,100264.47
2022-08-08T12:54:47.405Z,100272.78
2022-08-08T12:57:31.883Z,100263.03
2022-08-08T13:00:18.278Z,100283.59
2022-08-08T13:03:05.524Z,100290.78
2022-08-08T13:06:05.656Z,100283.56
2022-08-08T13:08:36.331Z,100294.09
2022-08-08T13:11:10.280Z,100296.09
2022-08-08T13:13:40.651Z,100293.13
2022-08-08T13:16:30.020Z,100300.59
2022-08-08T13:19:08.009Z,100304.88
2022-08-08T13:22:02.664Z,100295.22
2022-08-08T13:24:47.905Z,100301.75
2022-08-08T13:27:22.940Z,100303.91
2022-08-08T13:30:08.831Z,100274.94
2022-08-08T13:32:41.324Z,100283.22
2022-08-08T13:35:25.071Z,100301.94
2022-08-08T13:38:12.165Z,100299.75
2022-08-08T13:40:45.911Z,100303.72
2022-08-08T13:43:18.728Z,100311.78
2022-08-08T13:45:50.609Z,100275.00
2022-08-08T13:48:25.321Z,100314.41
2022-08-08T13:51:25.047Z,100312.75
2022-08-08T13:54:00.899Z,100328.88
2022-08-08T13:56:59.766Z,100320.56
2022-08-08T13:59:48.875Z,100321.31
2022-08-08T14:02:32.791Z,100327.03
2022-08-08T14:05:21.838Z,100313.69
2022-08-08T14:07:59.540Z,100325.69
2022-08-08T14:10:37.257Z,100310.41
2022-08-08T14:13:30.783Z,100307.13
2022-08-08T14:16:16.666Z,100317.66
2022-08-08T14:19:00.353Z,100324.22
2022-08-08T14:21:49.175Z,100318.66
2022-08-08T14:24:39.341Z,100318.75
2022-08-08T14:27:59.652Z,100316.13
2022-08-08T14:30:37.938Z,100294.44
2022-08-08T14:33:15.144Z,100324.00
2022-08-08T14:35:49.626Z,100318.94
2022-08-08T14:38:51.729Z,100335.56
2022-08-08T14:41:44.989Z,100331.84
2022-08-08T14:44:23.701Z,100312.34
2022-08-08T14:47:01.304Z,100320.38
2022-08-08T14:50:06.777Z,100323.84
2022-08-08T14:52:32.421Z,100296.28
2022-08-08T14:55:12.486Z,100307.00
2022-08-08T14:58:02.598Z,100320.91
2022-08-08T15:00:36.793Z,100320.06
2022-08-08T15:03:15.141Z,100330.81
2022-08-08T15:05:53.701Z,100333.75
2022-08-08T15:08:38.074Z,100323.84
2022-08-08T15:11:10.664Z,100309.38
2022-08-08T15:14:01.452Z,100323.84
2022-08-08T15:16:34.972Z,100315.25
2022-08-08T15:19:06.919Z,100337.72
2022-08-08T15:21:42.832Z,100338.25
2022-08-08T15:24:16.143Z,100323.25
2022-08-08T15:26:52.940Z,100264.13
2022-08-08T15:29:25.515Z,100323.78
2022-08-08T15:32:17.391Z,100307.44
2022-08-08T15:34:52.713Z,100316.22
2022-08-08T15:37:27.296Z,100319.44
2022-08-08T15:39:58.821Z,100297.75
2022-08-08T15:42:32.202Z,100300.41
2022-08-08T15:45:15.378Z,100305.75
2022-08-08T15:48:15.495Z,100294.75
2022-08-08T15:51:06.114Z,100294.72
2022-08-08T15:53:48.946Z,100296.81
2022-08-08T15:56:22.914Z,100285.28
2022-08-08T15:58:52.523Z,100290.63
2022-08-08T16:01:22.470Z,100291.16
2022-08-08T16:03:54.989Z,100271.63
2022-08-08T16:06:27.675Z,100285.47
2022-08-08T16:13:09.455Z,100275.03
2022-08-08T16:13:09.815Z,100277.97
2022-08-08T16:14:53.747Z,100275.00
2022-08-08T16:17:58.225Z,100244.78
2022-08-08T16:20:16.565Z,100264.25
2022-08-08T16:22:49.263Z,100267.47
2022-08-08T16:25:21.342Z,100259.69
2022-08-08T16:27:57.850Z,100257.28
2022-08-08T16:30:36.209Z,100259.66
2022-08-08T16:33:07.116Z,100240.09
2022-08-08T16:35:41.548Z,100252.91
2022-08-08T16:38:16.329Z,100260.94
2022-08-08T16:41:04.400Z,100249.16
2022-08-08T16:43:49.196Z,100240.56
2022-08-08T16:46:44.817Z,100244.53
2022-08-08T16:49:12.155Z,100237.31
2022-08-08T16:55:19.673Z,100248.28
2022-08-08T16:55:22.837Z,100244.75
2022-08-08T16:58:14.159Z,100238.34
2022-08-08T17:00:27.128Z,100234.59
2022-08-08T17:02:57.547Z,100235.41
2022-08-08T17:05:42.463Z,100252.25
2022-08-08T17:08:14.746Z,100226.81
2022-08-08T17:10:53.548Z,100241.22
2022-08-08T17:13:49.988Z,100236.91
2022-08-08T17:16:22.308Z,100225.63
2022-08-08T17:18:53.870Z,100232.34
2022-08-08T17:21:26.282Z,100235.81
2022-08-08T17:24:00.350Z,100242.50
2022-08-08T17:26:33.350Z,100208.03
2022-08-08T17:29:06.788Z,100225.84
2022-08-08T17:31:44.007Z,100229.59
2022-08-08T17:34:48.045Z,100223.97
2022-08-08T17:37:09.316Z,100229.06
2022-08-08T17:40:12.222Z,100214.63
2022-08-08T17:42:36.647Z,100224.19
2022-08-08T17:45:22.681Z,100233.28
2022-08-08T17:47:55.006Z,100218.81
2022-08-08T17:50:26.297Z,100226.59
2022-08-08T17:52:57.739Z,100227.34
2022-08-08T17:56:06.108Z,100209.41
2022-08-08T17:58:20.877Z,100191.28
2022-08-08T18:00:58.709Z,100209.63
2022-08-08T18:03:29.426Z,100203.97
2022-08-08T18:06:03.192Z,100214.19
2022-08-08T18:08:49.725Z,100211.50
2022-08-08T18:11:26.548Z,100212.84
2022-08-08T18:14:01.119Z,100201.88
2022-08-08T18:16:32.012Z,100218.97
2022-08-08T18:19:02.588Z,100210.41
2022-08-08T18:21:58.787Z,100220.88
2022-08-08T18:24:27.639Z,100212.59
2022-08-08T18:27:06.132Z,100190.13
2022-08-08T18:29:46.577Z,100201.91
2022-08-08T18:32:19.031Z,100200.25
2022-08-08T18:34:53.072Z,100192.19
2022-08-08T18:37:34.773Z,100200.50
2022-08-08T18:40:05.101Z,100202.34
2022-08-08T18:42:35.636Z,100191.91
2022-08-08T18:45:08.911Z,100199.66
2022-08-08T18:47:39.051Z,100176.94
2022-08-08T18:50:10.025Z,100211.44
2022-08-08T18:52:40.235Z,100205.84
2022-08-08T18:55:12.406Z,100213.03
2022-08-08T18:57:45.793Z,100213.03
2022-08-08T19:00:21.968Z,100209.34
2022-08-08T19:03:05.912Z,100208.00
2022-08-08T19:05:45.169Z,100216.78
2022-08-08T19:08:25.016Z,100209.81
2022-08-08T19:11:01.550Z,100203.41
2022-08-08T19:13:52.418Z,100215.69
2022-08-08T19:16:28.529Z,100218.88
2022-08-08T19:19:03.505Z,100211.41
2022-08-08T19:21:49.897Z,100198.03
2022-08-08T19:24:39.358Z,100201.47
2022-08-08T19:27:14.803Z,100202.47
2022-08-08T19:29:45.930Z,100199.28
2022-08-08T19:32:19.575Z,100176.59
2022-08-08T19:34:52.041Z,100175.50
2022-08-08T19:37:43.226Z,100182.72
2022-08-08T19:40:16.468Z,100178.13
2022-08-08T19:42:47.615Z,100193.34
2022-08-08T19:45:58.886Z,100193.06
2022-08-08T19:48:30.588Z,100186.66
2022-08-08T19:51:04.340Z,100180.53
2022-08-08T19:53:52.324Z,100200.03
2022-08-08T19:56:25.717Z,100188.78
2022-08-08T19:59:12.538Z,100196.53
2022-08-08T20:02:01.508Z,100193.84
2022-08-08T20:04:33.188Z,100197.34
2022-08-08T20:08:27.011Z,100189.63
2022-08-08T20:09:56.293Z,100190.16
2022-08-08T20:12:32.922Z,100195.75
2022-08-08T20:15:14.866Z,100199.75
2022-08-08T20:17:48.608Z,100197.59
2022-08-08T20:20:22.071Z,100187.41
2022-08-08T20:22:55.850Z,100187.13
2022-08-08T20:25:31.382Z,100180.72
2022-08-08T20:28:06.785Z,100193.56
2022-08-08T20:30:55.840Z,100186.94
2022-08-08T20:35:58.654Z,100187.19
2022-08-08T20:38:36.070Z,100174.66
2022-08-08T20:41:17.704Z,100183.75
2022-08-08T20:43:49.615Z,100201.06
2022-08-08T20:46:25.776Z,100206.69
2022-08-08T20:48:59.953Z,100202.72
2022-08-08T20:51:33.170Z,100213.66
2022-08-08T20:54:13.794Z,100189.34
2022-08-08T20:57:04.682Z,100213.13
2022-08-08T20:59:41.153Z,100218.22
2022-08-08T21:02:12.815Z,100207.00
2022-08-08T21:04:47.684Z,100221.19
2022-08-08T21:07:47.974Z,100220.38
2022-08-08T21:10:13.087Z,100230.84
2022-08-08T21:12:46.900Z,100227.88
2022-08-08T21:16:05.372Z,100208.91
2022-08-08T21:18:13.738Z,100196.38
2022-08-08T21:20:49.121Z,100200.09
2022-08-08T21:23:25.228Z,100213.13
2022-08-08T21:26:10.700Z,100221.69
2022-08-08T21:28:46.193Z,100221.94
2022-08-08T21:31:22.765Z,100221.41
2022-08-08T21:33:56.218Z,100220.91
2022-08-08T21:36:31.555Z,100228.09
2022-08-08T21:39:04.382Z,100211.81
2022-08-08T21:41:46.377Z,100227.03
2022-08-08T21:44:23.597Z,100221.13
2022-08-08T21:48:04.263Z,100219.25
2022-08-08T21:49:44.157Z,100222.50
2022-08-08T21:54:27.208Z,100230.53
2022-08-08T21:56:18.410Z,100231.28
2022-08-08T21:58:05.735Z,100220.38
2022-08-08T22:00:40.865Z,100234.78
2022-08-08T22:03:17.759Z,100227.31
2022-08-08T22:05:48.436Z,100234.28
2022-08-08T22:08:24.011Z,100242.41
2022-08-08T22:10:56.130Z,100228.44
2022-08-08T22:13:25.345Z,100232.84
2022-08-08T22:16:13.356Z,100242.63
2022-08-08T22:18:43.083Z,100241.63
2022-08-08T22:21:16.194Z,100236.66
2022-08-08T22:23:51.408Z,100244.78
2022-08-08T22:26:29.817Z,100253.84
2022-08-08T22:29:14.024Z,100248.06
2022-08-08T22:31:58.359Z,100224.66
2022-08-08T22:34:39.758Z,100232.75
2022-08-08T22:37:28.126Z,100237.59
2022-08-08T22:40:02.168Z,100232.56
2022-08-08T22:42:34.437Z,100248.63
2022-08-08T22:45:12.273Z,100255.59
2022-08-08T22:47:46.891Z,100257.19
2022-08-08T22:50:26.952Z,100256.06
2022-08-08T22:54:32.897Z,100245.28
2022-08-08T22:56:01.567Z,100259.72
2022-08-08T22:58:34.935Z,100259.41
2022-08-08T23:01:16.775Z,100257.53
2022-08-08T23:03:55.938Z,100255.91
2022-08-08T23:06:29.012Z,100261.97
2022-08-08T23:09:01.890Z,100253.97
2022-08-08T23:12:28.150Z,100269.78
2022-08-08T23:14:31.947Z,100266.88
2022-08-08T23:17:02.809Z,100263.66
2022-08-08T23:19:34.170Z,100264.69
2022-08-08T23:22:05.825Z,100280.22
2022-08-08T23:24:41.340Z,100275.44
2022-08-08T23:27:37.964Z,100270.34
2022-08-08T23:30:04.119Z,100269.84
2022-08-08T23:32:35.409Z,100276.53
2022-08-08T23:35:12.696Z,100281.09
2022-08-08T23:38:02.912Z,100271.16
2022-08-08T23:40:33.839Z,100288.78
2022-08-08T23:43:04.665Z,100287.75
2022-08-08T23:49:02.105Z,100280.00
2022-08-08T23:49:04.475Z,100282.41
2022-08-08T23:51:41.582Z,100288.56
2022-08-08T23:54:43.007Z,100282.41
2022-08-08T23:56:58.367Z,100283.75
2022-08-08T23:59:29.237Z,100288.25
